Time;durP1;ratioP1;P1;durP2;ratioP2;P2;SDS_P1;SDS_P2;PMS_P1;PMS_P2;Temp;Humidity;BMP_temperature;BMP_pressure;BME280_temperature;BME280_humidity;BME280_pressure;Samples;Min_cycle;Max_cycle;Signal;HPM_P1;HPM_P2
2022/03/16 00:00:19;;;;;;;;;;;10.20;93.10;;;;;;5088206;28;20445;-74
2022/03/16 00:02:45;;;;;;;;;;;10.10;93.10;;;;;;5087940;28;19912;-74
2022/03/16 00:05:11;;;;;;;;;;;10.10;93.10;;;;;;5088063;28;19908;-73
2022/03/16 00:07:37;;;;;;;;;;;10.00;93.10;;;;;;5088140;28;19912;-74
2022/03/16 00:10:03;;;;;;;;;;;10.00;93.20;;;;;;5088130;28;19988;-74
2022/03/16 00:12:29;;;;;;;;;;;9.90;93.20;;;;;;5088088;28;20324;-74
2022/03/16 00:14:54;;;;;;;;;;;9.90;93.30;;;;;;5087989;28;19916;-74
2022/03/16 00:17:20;;;;;;;;;;;9.90;93.30;;;;;;5088181;28;19939;-74
2022/03/16 00:19:46;;;;;;;;;;;9.80;93.30;;;;;;5088086;28;19912;-74
2022/03/16 00:22:12;;;;;;;;;;;9.80;93.30;;;;;;5088095;28;20321;-74
2022/03/16 00:24:38;;;;;;;;;;;9.80;93.50;;;;;;5087934;28;20090;-73
2022/03/16 00:27:04;;;;;;;;;;;9.70;93.50;;;;;;5086650;28;20455;-73
2022/03/16 00:29:29;;;;;;;;;;;9.70;93.60;;;;;;5088045;28;20011;-73
2022/03/16 00:31:55;;;;;;;;;;;9.70;93.60;;;;;;5088360;28;20212;-73
2022/03/16 00:34:21;;;;;;;;;;;9.70;93.70;;;;;;5087696;28;19912;-74
2022/03/16 00:36:46;;;;;;;;;;;9.70;93.70;;;;;;5087617;28;20336;-74
2022/03/16 00:39:12;;;;;;;;;;;9.70;93.70;;;;;;5087903;28;19926;-74
2022/03/16 00:41:37;;;;;;;;;;;9.60;93.70;;;;;;5090732;28;20380;-74
2022/03/16 00:44:04;;;;;;;;;;;9.60;93.60;;;;;;5091814;28;19969;-73
2022/03/16 00:46:29;;;;;;;;;;;9.60;93.60;;;;;;5091476;28;19961;-74
2022/03/16 00:48:55;;;;;;;;;;;9.60;93.60;;;;;;5091763;28;19998;-74
2022/03/16 00:51:21;;;;;;;;;;;9.60;93.60;;;;;;5091569;28;19916;-74
2022/03/16 00:53:46;;;;;;;;;;;9.60;93.50;;;;;;5091487;28;19934;-74
2022/03/16 00:56:12;;;;;;;;;;;9.60;93.50;;;;;;5091379;28;19965;-74
2022/03/16 00:58:38;;;;;;;;;;;9.50;93.40;;;;;;5091477;28;20267;-74
2022/03/16 01:01:05;;;;;;;;;;;9.60;93.40;;;;;;5091543;28;19927;-74
2022/03/16 01:03:31;;;;;;;;;;;9.50;93.30;;;;;;5091380;28;19961;-74
2022/03/16 01:05:57;;;;;;;;;;;9.60;93.30;;;;;;5091370;28;20275;-73
2022/03/16 01:08:22;;;;;;;;;;;9.60;93.30;;;;;;5091299;28;19909;-73
2022/03/16 01:10:48;;;;;;;;;;;9.60;93.30;;;;;;5091368;28;20350;-74
2022/03/16 01:13:14;;;;;;;;;;;9.60;93.20;;;;;;5091421;28;19917;-74
2022/03/16 01:15:39;;;;;;;;;;;9.60;93.20;;;;;;5091062;28;20206;-74
2022/03/16 01:18:05;;;;;;;;;;;9.60;93.10;;;;;;5089803;28;19959;-74
2022/03/16 01:20:30;;;;;;;;;;;9.50;93.10;;;;;;5089784;28;19916;-74
2022/03/16 01:22:56;;;;;;;;;;;9.50;93.10;;;;;;5091223;28;19930;-74
2022/03/16 01:25:22;;;;;;;;;;;9.50;93.10;;;;;;5091093;28;20006;-74
2022/03/16 01:27:47;;;;;;;;;;;9.40;93.10;;;;;;5089668;28;19957;-73
2022/03/16 01:30:16;;;;;;;;;;;9.40;93.10;;;;;;5090918;28;19955;-74
2022/03/16 01:32:42;;;;;;;;;;;9.40;93.10;;;;;;5090815;28;20382;-74
2022/03/16 01:35:08;;;;;;;;;;;9.40;93.20;;;;;;5090809;28;19919;-74
2022/03/16 01:37:34;;;;;;;;;;;9.40;93.20;;;;;;5090743;28;19924;-74
2022/03/16 01:39:59;;;;;;;;;;;9.40;93.20;;;;;;5090645;28;20362;-74
2022/03/16 01:42:25;;;;;;;;;;;9.30;93.20;;;;;;5090729;28;19916;-74
2022/03/16 01:44:52;;;;;;;;;;;9.30;93.20;;;;;;5090585;28;19908;-74
2022/03/16 01:47:19;;;;;;;;;;;9.40;93.20;;;;;;5090555;28;19908;-73
2022/03/16 01:49:46;;;;;;;;;;;9.40;93.20;;;;;;5090606;28;19915;-74
2022/03/16 01:52:14;;;;;;;;;;;9.30;93.20;;;;;;5089357;28;19934;-74
2022/03/16 01:54:40;;;;;;;;;;;9.30;93.20;;;;;;5088864;28;19955;-74
2022/03/16 01:57:07;;;;;;;;;;;9.30;93.20;;;;;;5090378;28;19959;-73
2022/03/16 01:59:32;;;;;;;;;;;9.30;93.20;;;;;;5090336;28;19973;-74
2022/03/16 02:01:58;;;;;;;;;;;9.30;93.30;;;;;;5090403;28;19952;-74
2022/03/16 02:04:24;;;;;;;;;;;9.20;93.20;;;;;;5090442;28;20441;-73
2022/03/16 02:06:49;;;;;;;;;;;9.20;93.30;;;;;;5090457;28;20378;-73
2022/03/16 02:09:15;;;;;;;;;;;9.20;93.30;;;;;;5090194;28;20348;-73
2022/03/16 02:11:40;;;;;;;;;;;9.20;93.20;;;;;;5090240;28;19959;-72
2022/03/16 02:14:06;;;;;;;;;;;9.30;93.30;;;;;;5088610;28;20285;-73
2022/03/16 02:16:34;;;;;;;;;;;9.30;93.20;;;;;;5090515;28;19912;-73
2022/03/16 02:19:00;;;;;;;;;;;9.30;93.20;;;;;;5090203;28;20005;-73
2022/03/16 02:21:27;;;;;;;;;;;9.30;93.20;;;;;;5088607;28;19962;-73
2022/03/16 02:23:53;;;;;;;;;;;9.30;93.10;;;;;;5089935;28;19912;-74
2022/03/16 02:26:23;;;;;;;;;;;9.40;93.10;;;;;;5089790;28;19912;-72
2022/03/16 02:28:49;;;;;;;;;;;9.40;93.10;;;;;;5089602;28;19915;-74
2022/03/16 02:31:17;;;;;;;;;;;9.30;93.10;;;;;;5089846;28;19908;-73
2022/03/16 02:33:42;;;;;;;;;;;9.30;93.10;;;;;;5089601;28;19926;-73
2022/03/16 02:36:09;;;;;;;;;;;9.30;93.10;;;;;;5089408;28;19912;-73
2022/03/16 02:38:35;;;;;;;;;;;9.30;93.20;;;;;;5089722;28;20014;-73
2022/03/16 02:41:00;;;;;;;;;;;9.20;93.20;;;;;;5089538;28;20003;-73
2022/03/16 02:43:27;;;;;;;;;;;9.20;93.20;;;;;;5088168;28;19994;-73
2022/03/16 02:45:53;;;;;;;;;;;9.20;93.20;;;;;;5089305;28;19923;-72
2022/03/16 02:48:19;;;;;;;;;;;9.10;93.30;;;;;;5089498;28;20015;-73
2022/03/16 02:50:44;;;;;;;;;;;9.00;93.30;;;;;;5089553;28;19912;-73
2022/03/16 02:53:10;;;;;;;;;;;9.00;93.40;;;;;;5088217;28;20341;-73
2022/03/16 02:55:36;;;;;;;;;;;9.00;93.40;;;;;;5089173;28;20316;-74
2022/03/16 02:58:02;;;;;;;;;;;8.90;93.50;;;;;;5089257;28;19940;-72
2022/03/16 03:00:27;;;;;;;;;;;8.90;93.50;;;;;;5089102;28;19963;-73
2022/03/16 03:02:54;;;;;;;;;;;8.90;93.50;;;;;;5088845;28;19916;-72
2022/03/16 03:05:20;;;;;;;;;;;8.90;93.50;;;;;;5089102;28;20330;-73
2022/03/16 03:07:46;;;;;;;;;;;8.90;93.50;;;;;;5089139;28;19916;-73
2022/03/16 03:10:11;;;;;;;;;;;8.90;93.50;;;;;;5089046;28;19939;-73
2022/03/16 03:12:37;;;;;;;;;;;8.90;93.70;;;;;;5088926;28;20362;-74
2022/03/16 03:15:03;;;;;;;;;;;8.90;93.40;;;;;;5088995;28;19981;-73
2022/03/16 03:17:29;;;;;;;;;;;8.90;93.40;;;;;;5088954;28;19912;-73
2022/03/16 03:19:54;;;;;;;;;;;8.90;93.40;;;;;;5087762;28;19912;-73
2022/03/16 03:22:20;;;;;;;;;;;8.90;93.30;;;;;;5088812;28;19965;-73
2022/03/16 03:24:45;;;;;;;;;;;8.80;93.30;;;;;;5088737;28;19913;-73
2022/03/16 03:27:11;;;;;;;;;;;8.80;93.30;;;;;;5088867;28;19914;-73
2022/03/16 03:29:37;;;;;;;;;;;8.80;93.30;;;;;;5088680;28;20362;-73
2022/03/16 03:32:02;;;;;;;;;;;8.80;93.20;;;;;;5088698;28;19913;-73
2022/03/16 03:34:28;;;;;;;;;;;8.80;93.50;;;;;;5088524;28;20370;-73
2022/03/16 03:36:53;;;;;;;;;;;8.70;93.30;;;;;;5088452;28;19928;-74
2022/03/16 03:39:19;;;;;;;;;;;8.70;93.30;;;;;;5088544;28;20389;-73
2022/03/16 03:41:45;;;;;;;;;;;8.70;93.30;;;;;;5088428;28;19916;-73
2022/03/16 03:44:10;;;;;;;;;;;8.60;93.30;;;;;;5088345;28;19912;-73
2022/03/16 03:46:36;;;;;;;;;;;8.60;93.30;;;;;;5088601;28;19918;-73
2022/03/16 03:49:01;;;;;;;;;;;8.60;93.30;;;;;;5087111;28;19919;-72
2022/03/16 03:51:27;;;;;;;;;;;8.60;93.30;;;;;;5088434;28;19913;-73
2022/03/16 03:53:52;;;;;;;;;;;8.70;93.30;;;;;;5086836;28;20278;-73
2022/03/16 03:56:18;;;;;;;;;;;8.70;93.30;;;;;;5088243;28;19916;-72
2022/03/16 03:58:45;;;;;;;;;;;8.70;93.20;;;;;;5088304;28;19956;-73
2022/03/16 04:01:10;;;;;;;;;;;8.70;93.20;;;;;;5088239;28;19963;-73
2022/03/16 04:03:36;;;;;;;;;;;8.70;93.20;;;;;;5088402;28;19955;-73
2022/03/16 04:06:01;;;;;;;;;;;8.70;93.20;;;;;;5086871;28;19926;-74
2022/03/16 04:08:27;;;;;;;;;;;8.70;93.20;;;;;;5088326;28;19960;-73
2022/03/16 04:10:53;;;;;;;;;;;8.70;93.20;;;;;;5088159;28;20007;-73
2022/03/16 04:13:18;;;;;;;;;;;8.70;93.20;;;;;;5087980;28;20377;-73
2022/03/16 04:15:44;;;;;;;;;;;8.70;93.20;;;;;;5089603;28;19965;-73
2022/03/16 04:18:09;;;;;;;;;;;8.70;93.20;;;;;;5092281;28;20008;-72
2022/03/16 04:20:35;;;;;;;;;;;8.70;93.20;;;;;;5092359;28;19912;-73
2022/03/16 04:23:00;;;;;;;;;;;8.70;93.20;;;;;;5092181;28;20073;-73
2022/03/16 04:25:26;;;;;;;;;;;8.80;93.20;;;;;;5092165;28;20421;-73
2022/03/16 04:27:51;;;;;;;;;;;8.80;93.10;;;;;;5092587;28;19919;-72
2022/03/16 04:30:17;;;;;;;;;;;8.70;93.10;;;;;;5092160;28;19962;-73
2022/03/16 04:32:43;;;;;;;;;;;8.70;93.10;;;;;;5092021;28;19912;-73
2022/03/16 04:35:09;;;;;;;;;;;8.70;93.10;;;;;;5091824;28;19925;-73
2022/03/16 04:37:35;;;;;;;;;;;8.70;93.10;;;;;;5090578;28;19931;-73
2022/03/16 04:40:01;;;;;;;;;;;8.70;93.10;;;;;;5091938;28;19916;-74
2022/03/16 04:42:26;;;;;;;;;;;8.70;93.10;;;;;;5091937;28;19965;-74
2022/03/16 04:44:52;;;;;;;;;;;8.80;93.10;;;;;;5091838;28;19916;-74
2022/03/16 04:47:17;;;;;;;;;;;8.70;93.00;;;;;;5091797;28;19912;-73
2022/03/16 04:49:43;;;;;;;;;;;8.70;93.00;;;;;;5090437;28;19916;-73
2022/03/16 04:52:09;;;;;;;;;;;8.80;93.10;;;;;;5091714;28;20420;-73
2022/03/16 04:54:34;;;;;;;;;;;8.70;93.00;;;;;;5091488;28;19916;-73
2022/03/16 04:57:00;;;;;;;;;;;8.70;93.10;;;;;;5091859;28;19916;-74
2022/03/16 04:59:25;;;;;;;;;;;8.70;93.00;;;;;;5091571;28;19999;-74
2022/03/16 05:01:51;;;;;;;;;;;8.70;93.10;;;;;;5090039;28;19908;-73
2022/03/16 05:04:17;;;;;;;;;;;8.60;93.00;;;;;;5091294;28;19963;-74
2022/03/16 05:06:42;;;;;;;;;;;8.60;93.10;;;;;;5091408;28;19913;-73
2022/03/16 05:09:08;;;;;;;;;;;8.60;93.10;;;;;;5091469;28;19912;-73
2022/03/16 05:11:35;;;;;;;;;;;8.60;93.20;;;;;;5091268;28;20259;-74
2022/03/16 05:14:01;;;;;;;;;;;8.60;93.20;;;;;;5091467;28;19927;-74
2022/03/16 05:16:27;;;;;;;;;;;8.60;93.20;;;;;;5091211;28;19912;-73
2022/03/16 05:18:52;;;;;;;;;;;8.60;93.10;;;;;;5091082;28;20282;-75
2022/03/16 05:21:18;;;;;;;;;;;8.50;93.10;;;;;;5091127;28;20293;-74
2022/03/16 05:23:43;;;;;;;;;;;8.50;93.10;;;;;;5091029;28;19916;-75
2022/03/16 05:26:09;;;;;;;;;;;8.50;93.10;;;;;;5090863;28;20008;-75
2022/03/16 05:28:35;;;;;;;;;;;8.50;93.10;;;;;;5090944;28;20346;-75
2022/03/16 05:31:00;;;;;;;;;;;8.40;93.10;;;;;;5091033;28;19912;-75
2022/03/16 05:33:26;;;;;;;;;;;8.40;93.10;;;;;;5090795;28;19965;-75
2022/03/16 05:35:52;;;;;;;;;;;8.40;93.20;;;;;;5090748;28;19912;-74
2022/03/16 05:38:17;;;;;;;;;;;8.40;93.20;;;;;;5090598;28;20308;-74
2022/03/16 05:40:43;;;;;;;;;;;8.40;93.20;;;;;;5090793;28;19935;-74
2022/03/16 05:43:12;;;;;;;;;;;8.40;93.20;;;;;;5089896;28;21600;-73
2022/03/16 05:45:37;;;;;;;;;;;8.40;93.10;;;;;;5090556;28;20270;-75
2022/03/16 05:48:03;;;;;;;;;;;8.30;93.10;;;;;;5090603;28;19991;-75
2022/03/16 05:50:29;;;;;;;;;;;8.30;93.10;;;;;;5090763;28;20385;-74
2022/03/16 05:53:02;;;;;;;;;;;8.30;93.10;;;;;;5089293;28;19912;-74
2022/03/16 05:55:28;;;;;;;;;;;8.30;93.20;;;;;;5090488;28;19912;-74
2022/03/16 05:57:53;;;;;;;;;;;8.20;93.10;;;;;;5090396;28;19938;-75
2022/03/16 06:00:20;;;;;;;;;;;8.20;93.10;;;;;;5090334;28;19908;-73
2022/03/16 06:02:46;;;;;;;;;;;8.20;93.10;;;;;;5090398;28;19915;-74
2022/03/16 06:05:13;;;;;;;;;;;8.10;93.10;;;;;;5090236;28;20508;-75
2022/03/16 06:07:38;;;;;;;;;;;8.10;93.10;;;;;;5090220;28;19951;-74
2022/03/16 06:10:05;;;;;;;;;;;8.10;93.10;;;;;;5090227;28;19946;-74
2022/03/16 06:12:30;;;;;;;;;;;8.10;93.10;;;;;;5090250;28;19917;-73
2022/03/16 06:14:56;;;;;;;;;;;8.10;93.10;;;;;;5089899;28;19920;-74
2022/03/16 06:17:21;;;;;;;;;;;8.10;93.10;;;;;;5089176;28;19973;-73
2022/03/16 06:19:47;;;;;;;;;;;8.10;93.10;;;;;;5089919;28;20015;-74
2022/03/16 06:22:12;;;;;;;;;;;8.00;93.10;;;;;;5089857;28;19956;-74
2022/03/16 06:24:38;;;;;;;;;;;8.10;93.10;;;;;;5089809;28;19919;-75
2022/03/16 06:27:04;;;;;;;;;;;8.00;93.00;;;;;;5089637;28;19919;-73
2022/03/16 06:29:29;;;;;;;;;;;8.00;93.00;;;;;;5088416;28;19950;-74
2022/03/16 06:31:55;;;;;;;;;;;8.00;93.00;;;;;;5088414;28;19950;-74
2022/03/16 06:34:20;;;;;;;;;;;8.00;93.00;;;;;;5089426;28;19935;-74
2022/03/16 06:36:46;;;;;;;;;;;8.00;93.00;;;;;;5089290;28;19953;-74
2022/03/16 06:39:12;;;;;;;;;;;8.00;93.00;;;;;;5088892;28;20355;-75
2022/03/16 06:41:37;;;;;;;;;;;8.00;93.00;;;;;;5089513;28;19908;-74
2022/03/16 06:44:03;;;;;;;;;;;8.00;93.00;;;;;;5088105;28;20005;-74
2022/03/16 06:46:28;;;;;;;;;;;8.00;92.90;;;;;;5089421;28;19916;-75
2022/03/16 06:48:54;;;;;;;;;;;7.90;92.90;;;;;;5089322;28;20324;-75
2022/03/16 06:51:20;;;;;;;;;;;7.90;92.90;;;;;;5088003;28;19943;-74
2022/03/16 06:53:45;;;;;;;;;;;7.90;92.90;;;;;;5087741;28;19916;-74
2022/03/16 06:56:11;;;;;;;;;;;7.90;93.00;;;;;;5087912;28;19928;-74
2022/03/16 06:58:36;;;;;;;;;;;7.80;93.00;;;;;;5089061;28;19916;-74
2022/03/16 07:01:02;;;;;;;;;;;7.80;93.00;;;;;;5089072;28;20358;-74
2022/03/16 07:03:28;;;;;;;;;;;7.80;93.10;;;;;;5087751;28;20416;-74
2022/03/16 07:05:53;;;;;;;;;;;7.80;93.10;;;;;;5088849;28;20026;-73
2022/03/16 07:08:19;;;;;;;;;;;7.80;93.10;;;;;;5087685;28;19947;-75
2022/03/16 07:10:45;;;;;;;;;;;7.80;93.10;;;;;;5088639;28;19912;-74
2022/03/16 07:13:11;;;;;;;;;;;7.80;93.10;;;;;;5088608;28;20276;-74
2022/03/16 07:15:37;;;;;;;;;;;7.80;93.10;;;;;;5088991;28;19927;-75
2022/03/16 07:18:03;;;;;;;;;;;7.90;93.20;;;;;;5088551;28;19919;-73
2022/03/16 07:20:32;;;;;;;;;;;7.90;93.40;;;;;;5087105;28;20398;-74
2022/03/16 07:23:01;;;;;;;;;;;8.00;93.10;;;;;;5088471;28;19962;-73
2022/03/16 07:25:27;;;;;;;;;;;8.00;93.10;;;;;;5088594;28;19949;-74
2022/03/16 07:27:52;;;;;;;;;;;8.00;93.00;;;;;;5087114;28;19965;-74
2022/03/16 07:30:18;;;;;;;;;;;8.00;93.00;;;;;;5086739;28;20045;-74
2022/03/16 07:32:44;;;;;;;;;;;7.90;93.00;;;;;;5088199;28;19931;-74
2022/03/16 07:35:09;;;;;;;;;;;7.90;93.00;;;;;;5087937;28;20014;-75
2022/03/16 07:37:35;;;;;;;;;;;7.90;93.00;;;;;;5087832;28;19959;-74
2022/03/16 07:40:02;;;;;;;;;;;7.80;93.00;;;;;;5088158;28;20049;-75
2022/03/16 07:42:29;;;;;;;;;;;7.80;93.10;;;;;;5088881;28;19919;-74
2022/03/16 07:44:54;;;;;;;;;;;7.80;93.10;;;;;;5088607;28;19908;-74
2022/03/16 07:47:20;;;;;;;;;;;7.80;93.10;;;;;;5088084;28;20081;-73
2022/03/16 07:49:45;;;;;;;;;;;7.80;93.10;;;;;;5086112;28;19919;-75
2022/03/16 07:52:11;;;;;;;;;;;7.80;93.10;;;;;;5087516;28;19916;-74
2022/03/16 07:54:36;;;;;;;;;;;7.90;93.10;;;;;;5088142;28;19920;-74
2022/03/16 07:57:02;;;;;;;;;;;7.90;93.10;;;;;;5089832;28;20274;-74
2022/03/16 07:59:27;;;;;;;;;;;7.90;93.10;;;;;;5088322;28;20038;-74
2022/03/16 08:01:53;;;;;;;;;;;7.80;93.20;;;;;;5087773;28;20206;-74
2022/03/16 08:04:19;;;;;;;;;;;7.80;93.00;;;;;;5086367;28;19912;-75
2022/03/16 08:06:44;;;;;;;;;;;7.80;93.00;;;;;;5086161;28;19923;-73
2022/03/16 08:09:10;;;;;;;;;;;7.70;93.10;;;;;;5086571;28;19999;-74
2022/03/16 08:11:35;;;;;;;;;;;7.80;93.10;;;;;;5088024;28;19912;-74
2022/03/16 08:14:01;;;;;;;;;;;7.80;93.10;;;;;;5087767;28;19920;-74
2022/03/16 08:16:26;;;;;;;;;;;7.80;93.20;;;;;;5087557;28;19987;-73
2022/03/16 08:18:52;;;;;;;;;;;7.80;93.10;;;;;;5087735;28;19919;-73
2022/03/16 08:21:17;;;;;;;;;;;7.90;93.20;;;;;;5087697;28;19912;-73
2022/03/16 08:23:43;;;;;;;;;;;7.90;93.20;;;;;;5086313;28;19916;-74
2022/03/16 08:26:08;;;;;;;;;;;8.00;93.20;;;;;;5087122;28;19912;-74
2022/03/16 08:28:34;;;;;;;;;;;8.00;93.20;;;;;;5087953;28;20267;-75
2022/03/16 08:31:01;;;;;;;;;;;8.10;93.20;;;;;;5087561;28;19912;-74
2022/03/16 08:33:26;;;;;;;;;;;8.10;93.20;;;;;;5086460;28;19923;-75
2022/03/16 08:35:52;;;;;;;;;;;8.20;93.20;;;;;;5087618;28;19909;-74
2022/03/16 08:38:17;;;;;;;;;;;8.30;93.20;;;;;;5087053;28;19924;-74
2022/03/16 08:40:43;;;;;;;;;;;8.40;93.20;;;;;;5087141;28;19919;-74
2022/03/16 08:43:09;;;;;;;;;;;8.50;93.20;;;;;;5086067;28;19929;-75
2022/03/16 08:45:35;;;;;;;;;;;8.60;93.20;;;;;;5087288;28;19908;-74
2022/03/16 08:48:01;;;;;;;;;;;8.70;93.10;;;;;;5087438;28;19934;-73
2022/03/16 08:50:30;;;;;;;;;;;8.70;93.00;;;;;;5087106;28;19930;-74
2022/03/16 08:52:56;;;;;;;;;;;8.70;93.00;;;;;;5086703;28;19912;-74
2022/03/16 08:55:22;;;;;;;;;;;8.70;92.90;;;;;;5086597;28;20298;-74
2022/03/16 08:57:47;;;;;;;;;;;8.80;92.90;;;;;;5085247;28;19916;-74
2022/03/16 09:00:15;;;;;;;;;;;8.80;92.90;;;;;;5086578;28;20358;-73
2022/03/16 09:02:41;;;;;;;;;;;8.90;92.90;;;;;;5089200;28;19919;-74
2022/03/16 09:05:07;;;;;;;;;;;8.90;92.90;;;;;;5090555;28;19912;-74
2022/03/16 09:07:32;;;;;;;;;;;9.00;92.90;;;;;;5090492;28;19958;-75
2022/03/16 09:09:58;;;;;;;;;;;9.00;92.80;;;;;;5090524;28;20006;-75
2022/03/16 09:12:24;;;;;;;;;;;9.00;92.80;;;;;;5091451;28;20271;-75
2022/03/16 09:14:49;;;;;;;;;;;9.10;92.80;;;;;;5091143;28;19934;-73
2022/03/16 09:17:17;;;;;;;;;;;9.20;92.80;;;;;;5091937;28;19908;-73
2022/03/16 09:19:45;;;;;;;;;;;9.20;92.70;;;;;;5091557;28;19987;-74
2022/03/16 09:22:11;;;;;;;;;;;9.30;92.80;;;;;;5073403;28;20015;-74
2022/03/16 09:24:38;;;;;;;;;;;9.40;92.80;;;;;;5091284;28;20038;-74
2022/03/16 09:27:04;;;;;;;;;;;9.50;92.80;;;;;;5090543;28;19919;-73
2022/03/16 09:29:30;;;;;;;;;;;9.80;93.10;;;;;;5089224;28;19912;-74
2022/03/16 09:31:55;;;;;;;;;;;10.20;93.30;;;;;;5088084;28;19934;-73
2022/03/16 09:34:21;;;;;;;;;;;10.80;93.60;;;;;;5089633;28;19925;-73
2022/03/16 09:36:47;;;;;;;;;;;11.40;93.60;;;;;;5089231;28;20337;-73
2022/03/16 09:39:13;;;;;;;;;;;12.00;93.40;;;;;;5089554;28;19927;-72
2022/03/16 09:41:39;;;;;;;;;;;12.30;92.90;;;;;;5088407;28;19998;-74
2022/03/16 09:44:05;;;;;;;;;;;12.60;92.60;;;;;;5088733;28;19912;-73
2022/03/16 09:46:32;;;;;;;;;;;12.60;92.00;;;;;;5089810;28;19915;-73
2022/03/16 09:48:58;;;;;;;;;;;12.50;91.90;;;;;;5088519;28;20351;-73
2022/03/16 09:51:25;;;;;;;;;;;12.30;91.70;;;;;;5089869;28;20418;-78
2022/03/16 09:53:52;;;;;;;;;;;12.30;92.00;;;;;;5090625;28;20334;-72
2022/03/16 09:56:21;;;;;;;;;;;12.30;92.10;;;;;;5089172;28;19913;-74
2022/03/16 09:58:47;;;;;;;;;;;12.30;92.10;;;;;;5089291;28;20223;-73
2022/03/16 10:01:12;;;;;;;;;;;12.20;92.20;;;;;;5087835;28;19923;-74
2022/03/16 10:03:38;;;;;;;;;;;12.30;92.20;;;;;;5089408;28;19951;-73
2022/03/16 10:06:08;;;;;;;;;;;12.40;92.20;;;;;;5089267;28;19908;-70
2022/03/16 10:08:36;;;;;;;;;;;12.50;92.30;;;;;;5088752;28;20336;-74
2022/03/16 10:13:54;;;;;;;;;;;13.20;92.70;;;;;;5092840;28;19938;-74
2022/03/16 10:16:20;;;;;;;;;;;13.40;92.40;;;;;;5089357;28;19916;-72
2022/03/16 10:18:53;;;;;;;;;;;13.60;92.20;;;;;;5090072;28;20420;-74
2022/03/16 10:21:19;;;;;;;;;;;13.90;92.50;;;;;;5089992;28;19947;-73
2022/03/16 10:23:45;;;;;;;;;;;14.30;92.20;;;;;;5090091;28;19955;-74
2022/03/16 10:26:14;;;;;;;;;;;14.70;92.30;;;;;;5089645;28;20355;-73
2022/03/16 10:28:40;;;;;;;;;;;15.40;92.60;;;;;;5083278;28;20670;-74
2022/03/16 10:31:07;;;;;;;;;;;16.20;92.40;;;;;;5089699;28;19920;-73
2022/03/16 10:33:34;;;;;;;;;;;16.80;91.70;;;;;;5088365;28;19946;-74
2022/03/16 10:36:05;;;;;;;;;;;17.10;91.70;;;;;;5087254;28;19908;-73
2022/03/16 10:38:35;;;;;;;;;;;17.20;91.60;;;;;;5089177;28;20003;-74
2022/03/16 10:41:13;;;;;;;;;;;17.10;91.10;;;;;;5086717;28;19942;-74
2022/03/16 10:46:35;;;;;;;;;;;16.90;91.40;;;;;;5088804;28;19953;-73
2022/03/16 10:49:00;;;;;;;;;;;16.90;91.90;;;;;;5088692;28;19991;-73
2022/03/16 10:51:26;;;;;;;;;;;17.50;91.70;;;;;;5088557;28;19999;-74
2022/03/16 10:53:53;;;;;;;;;;;18.00;91.10;;;;;;5088775;28;19962;-74
2022/03/16 10:56:19;;;;;;;;;;;18.10;90.20;;;;;;5089012;28;19979;-74
2022/03/16 10:58:45;;;;;;;;;;;18.20;90.10;;;;;;5086284;28;20387;-74
2022/03/16 11:01:12;;;;;;;;;;;18.90;90.40;;;;;;5088525;28;19916;-73
2022/03/16 11:03:41;;;;;;;;;;;19.60;90.20;;;;;;5087240;28;20311;-71
2022/03/16 11:06:08;;;;;;;;;;;20.30;90.30;;;;;;5088404;28;19912;-76
2022/03/16 11:08:37;;;;;;;;;;;21.00;89.20;;;;;;5088364;28;19916;-77
2022/03/16 11:13:48;;;;;;;;;;;21.70;88.20;;;;;;5088624;28;20011;-75
2022/03/16 11:16:19;;;;;;;;;;;21.90;88.70;;;;;;5088686;28;19908;-75
2022/03/16 11:18:46;;;;;;;;;;;22.10;89.20;;;;;;5086063;28;19970;-74
2022/03/16 11:21:13;;;;;;;;;;;21.90;89.80;;;;;;5088122;28;20004;-75
2022/03/16 11:26:33;;;;;;;;;;;22.20;90.30;;;;;;5088595;28;19927;-75
2022/03/16 11:29:17;;;;;;;;;;;22.40;90.50;;;;;;5087075;28;19908;-77
2022/03/16 11:31:43;;;;;;;;;;;22.30;90.20;;;;;;5088423;28;20358;-77
2022/03/16 11:34:10;;;;;;;;;;;22.60;90.30;;;;;;5088385;28;19938;-76
2022/03/16 11:36:40;;;;;;;;;;;22.20;89.10;;;;;;5088200;28;20403;-75
2022/03/16 11:39:15;;;;;;;;;;;21.70;90.30;;;;;;5086475;28;20320;-74
2022/03/16 11:41:47;;;;;;;;;;;21.40;90.20;;;;;;5086901;28;19912;-76
2022/03/16 11:44:28;;;;;;;;;;;20.90;89.90;;;;;;5088668;28;19958;-75
2022/03/16 11:47:09;;;;;;;;;;;20.20;89.10;;;;;;5087366;28;19912;-73
2022/03/16 11:49:35;;;;;;;;;;;19.50;88.90;;;;;;5087442;28;20381;-74
2022/03/16 11:52:02;;;;;;;;;;;18.70;87.10;;;;;;5087520;28;19919;-73
2022/03/16 11:54:54;;;;;;;;;;;17.80;86.80;;;;;;5086948;28;20025;-72
2022/03/16 11:57:48;;;;;;;;;;;17.10;87.30;;;;;;5083203;28;20393;-73
2022/03/16 12:00:14;;;;;;;;;;;16.90;88.30;;;;;;5085947;28;19915;-73
2022/03/16 12:02:40;;;;;;;;;;;17.00;85.70;;;;;;5087265;28;19916;-74
2022/03/16 12:05:08;;;;;;;;;;;17.30;85.60;;;;;;5086133;28;19909;-73
2022/03/16 12:07:35;;;;;;;;;;;17.30;84.70;;;;;;5086578;28;19935;-74
2022/03/16 12:10:03;;;;;;;;;;;17.20;85.10;;;;;;5087755;28;19986;-74
2022/03/16 12:15:25;;;;;;;;;;;17.70;84.10;;;;;;5086821;28;19969;-75
2022/03/16 12:17:51;;;;;;;;;;;17.80;80.80;;;;;;5087178;28;19946;-73
2022/03/16 12:20:37;;;;;;;;;;;17.90;79.60;;;;;;5087377;28;20238;-74
2022/03/16 12:23:10;;;;;;;;;;;17.80;79.30;;;;;;5085959;28;19916;-73
2022/03/16 12:25:39;;;;;;;;;;;17.80;78.00;;;;;;5086932;28;20533;-74
2022/03/16 12:30:54;;;;;;;;;;;17.70;80.00;;;;;;5087181;28;19937;-73
2022/03/16 12:33:22;;;;;;;;;;;17.80;80.40;;;;;;5087369;28;19916;-73
2022/03/16 12:35:52;;;;;;;;;;;18.10;81.30;;;;;;5084049;28;19983;-73
2022/03/16 12:38:19;;;;;;;;;;;18.20;81.20;;;;;;5090729;28;19924;-73
2022/03/16 12:43:42;;;;;;;;;;;19.00;82.60;;;;;;5078175;28;19916;-75
2022/03/16 12:46:08;;;;;;;;;;;19.00;80.80;;;;;;5091689;28;20304;-74
2022/03/16 12:48:35;;;;;;;;;;;18.50;78.80;;;;;;5091465;28;20358;-72
2022/03/16 12:51:01;;;;;;;;;;;18.20;79.00;;;;;;5090871;28;20588;-73
2022/03/16 12:53:34;;;;;;;;;;;17.90;79.00;;;;;;5090977;28;20339;-74
2022/03/16 12:55:59;;;;;;;;;;;17.70;78.30;;;;;;5090802;28;19931;-72
2022/03/16 12:58:27;;;;;;;;;;;17.90;78.10;;;;;;5091127;28;19911;-73
2022/03/16 13:00:59;;;;;;;;;;;18.20;77.90;;;;;;5090702;28;19999;-73
2022/03/16 13:03:24;;;;;;;;;;;18.50;78.00;;;;;;5090538;28;19915;-74
2022/03/16 13:05:52;;;;;;;;;;;19.00;77.70;;;;;;5091158;28;20262;-73
2022/03/16 13:08:18;;;;;;;;;;;19.40;76.60;;;;;;5090146;28;20312;-74
2022/03/16 13:13:28;;;;;;;;;;;19.50;76.80;;;;;;5090886;28;19963;-75
2022/03/16 13:15:55;;;;;;;;;;;19.40;76.50;;;;;;5090669;28;19928;-74
2022/03/16 13:18:30;;;;;;;;;;;19.00;76.50;;;;;;5088029;28;20007;-75
2022/03/16 13:20:56;;;;;;;;;;;18.60;76.00;;;;;;5090778;28;20378;-73
2022/03/16 13:23:31;;;;;;;;;;;18.10;76.10;;;;;;5091178;28;19919;-74
2022/03/16 13:26:07;;;;;;;;;;;17.70;75.90;;;;;;5090752;28;19912;-73
2022/03/16 13:28:33;;;;;;;;;;;17.50;76.50;;;;;;5091238;28;19912;-74
2022/03/16 13:30:58;;;;;;;;;;;17.70;76.40;;;;;;5091193;28;19912;-73
2022/03/16 13:33:27;;;;;;;;;;;18.20;76.80;;;;;;5090954;28;19912;-74
2022/03/16 13:36:12;;;;;;;;;;;18.40;76.60;;;;;;5090830;28;19922;-73
2022/03/16 13:38:38;;;;;;;;;;;18.50;77.10;;;;;;5090914;28;19924;-74
2022/03/16 13:41:13;;;;;;;;;;;18.60;77.60;;;;;;5090902;28;20417;-72
2022/03/16 13:43:39;;;;;;;;;;;18.80;76.00;;;;;;5090492;28;19934;-74
2022/03/16 13:46:13;;;;;;;;;;;19.00;74.80;;;;;;5090306;28;19929;-74
2022/03/16 13:48:40;;;;;;;;;;;19.10;73.40;;;;;;5089223;28;20459;-73
2022/03/16 13:51:07;;;;;;;;;;;18.90;72.30;;;;;;5090435;28;20393;-73
2022/03/16 13:53:39;;;;;;;;;;;18.50;70.20;;;;;;5090171;28;20427;-73
2022/03/16 13:56:13;;;;;;;;;;;18.20;70.90;;;;;;5090540;28;19925;-73
2022/03/16 13:58:39;;;;;;;;;;;18.10;71.20;;;;;;5089900;28;19915;-74
2022/03/16 14:01:06;;;;;;;;;;;18.10;70.90;;;;;;5089508;28;20029;-72
2022/03/16 14:03:32;;;;;;;;;;;17.80;70.70;;;;;;5090203;28;19908;-75
2022/03/16 14:06:00;;;;;;;;;;;17.40;70.50;;;;;;5090995;28;19915;-73
2022/03/16 14:08:25;;;;;;;;;;;17.10;70.40;;;;;;5088982;28;20054;-73
2022/03/16 14:10:54;;;;;;;;;;;16.50;70.50;;;;;;5090485;28;19950;-74
2022/03/16 14:13:22;;;;;;;;;;;16.20;69.80;;;;;;5088900;28;19908;-72
2022/03/16 14:15:48;;;;;;;;;;;16.10;69.40;;;;;;5090571;28;20437;-73
2022/03/16 14:18:14;;;;;;;;;;;16.10;68.80;;;;;;5091448;28;19912;-73
2022/03/16 14:20:44;;;;;;;;;;;15.90;69.20;;;;;;5090678;28;19954;-73
2022/03/16 14:23:11;;;;;;;;;;;15.80;68.60;;;;;;5090185;28;20003;-73
2022/03/16 14:25:37;;;;;;;;;;;15.60;68.20;;;;;;5088750;28;19923;-74
2022/03/16 14:28:04;;;;;;;;;;;15.40;68.00;;;;;;5089815;28;19912;-74
2022/03/16 14:30:31;;;;;;;;;;;15.20;67.90;;;;;;5089694;28;19999;-74
2022/03/16 14:32:59;;;;;;;;;;;15.00;68.30;;;;;;5089636;28;20017;-75
2022/03/16 14:35:26;;;;;;;;;;;14.90;68.40;;;;;;5089841;28;20051;-74
2022/03/16 14:37:51;;;;;;;;;;;14.70;68.30;;;;;;5089221;28;20007;-75
2022/03/16 14:40:19;;;;;;;;;;;14.60;68.70;;;;;;5089189;28;20330;-74
2022/03/16 14:43:04;;;;;;;;;;;14.60;68.20;;;;;;5088470;28;19919;-74
2022/03/16 14:45:30;;;;;;;;;;;14.50;67.90;;;;;;5085924;28;19979;-74